createdAt,value
2023-04-24T00:00:13.468Z,984.27
2023-04-24T00:01:13.410Z,984.28
2023-04-24T00:02:13.355Z,984.27
2023-04-24T00:03:13.536Z,984.30
2023-04-24T00:04:14.068Z,984.31
2023-04-24T00:05:13.162Z,984.34
2023-04-24T00:06:13.473Z,984.33
2023-04-24T00:07:13.564Z,984.30
2023-04-24T00:08:13.773Z,984.30
2023-04-24T00:09:13.696Z,984.34
2023-04-24T00:10:13.821Z,984.30
2023-04-24T00:11:14.097Z,984.36
2023-04-24T00:12:12.926Z,984.35
2023-04-24T00:13:12.999Z,984.33
2023-04-24T00:14:12.975Z,984.30
2023-04-24T00:15:13.196Z,984.35
2023-04-24T00:16:13.585Z,984.30
2023-04-24T00:17:13.677Z,984.23
2023-04-24T00:18:13.681Z,984.30
2023-04-24T00:19:13.930Z,984.30
2023-04-24T00:20:13.206Z,984.27
2023-04-24T00:21:13.453Z,984.32
2023-04-24T00:22:13.304Z,984.25
2023-04-24T00:23:13.411Z,984.36
2023-04-24T00:24:13.506Z,984.27
2023-04-24T00:25:13.465Z,984.28
2023-04-24T00:26:13.526Z,984.26
2023-04-24T00:27:13.420Z,984.29
2023-04-24T00:28:13.437Z,984.27
2023-04-24T00:29:13.649Z,984.37
2023-04-24T00:30:15.102Z,984.25
2023-04-24T00:31:13.270Z,984.28
2023-04-24T00:32:13.538Z,984.31
2023-04-24T00:33:13.433Z,984.28
2023-04-24T00:34:13.480Z,984.26
2023-04-24T00:35:13.755Z,984.25
2023-04-24T00:36:13.679Z,984.25
2023-04-24T00:37:13.553Z,984.23
2023-04-24T00:38:13.709Z,984.23
2023-04-24T00:39:14.185Z,984.22
2023-04-24T00:40:13.295Z,984.21
2023-04-24T00:41:13.503Z,984.23
2023-04-24T00:42:13.509Z,984.24
2023-04-24T00:43:13.540Z,984.25
2023-04-24T00:44:13.399Z,984.29
2023-04-24T00:45:13.903Z,984.18
2023-04-24T00:46:13.381Z,984.18
2023-04-24T00:47:13.314Z,984.22
2023-04-24T00:48:13.247Z,984.12
2023-04-24T00:49:13.365Z,984.20
2023-04-24T00:50:13.470Z,984.17
2023-04-24T00:51:13.521Z,984.23
2023-04-24T00:52:13.634Z,984.25
2023-04-24T00:53:13.489Z,984.27
2023-04-24T00:54:13.393Z,984.28
2023-04-24T00:55:13.580Z,984.24
2023-04-24T00:56:13.610Z,984.23
2023-04-24T00:57:13.719Z,984.21
2023-04-24T00:58:13.737Z,984.21
2023-04-24T00:59:13.774Z,984.21
2023-04-24T01:00:13.732Z,984.18
2023-04-24T01:01:13.903Z,984.17
2023-04-24T01:02:13.037Z,984.10
2023-04-24T01:03:13.253Z,984.14
2023-04-24T01:04:13.447Z,984.13
2023-04-24T01:05:13.609Z,984.14
2023-04-24T01:06:13.746Z,984.15
2023-04-24T01:07:14.114Z,984.17
2023-04-24T01:08:13.405Z,984.15
2023-04-24T01:09:13.416Z,984.09
2023-04-24T01:10:13.210Z,984.16
2023-04-24T01:11:13.414Z,984.19
2023-04-24T01:12:13.558Z,984.12
2023-04-24T01:13:13.519Z,984.11
2023-04-24T01:14:13.426Z,984.16
2023-04-24T01:15:13.629Z,984.05
2023-04-24T01:16:13.797Z,984.19
2023-04-24T01:17:13.781Z,984.09
2023-04-24T01:18:19.026Z,984.15
2023-04-24T01:19:13.135Z,984.16
2023-04-24T01:20:13.382Z,984.17
2023-04-24T01:21:13.197Z,984.23
2023-04-24T01:22:13.290Z,984.20
2023-04-24T01:23:13.305Z,984.18
2023-04-24T01:24:13.225Z,984.18
2023-04-24T01:25:13.095Z,984.14
2023-04-24T01:26:13.097Z,984.14
2023-04-24T01:27:13.326Z,984.15
2023-04-24T01:28:13.759Z,984.12
2023-04-24T01:29:13.990Z,984.19
2023-04-24T01:30:12.954Z,984.17
2023-04-24T01:31:13.310Z,984.20
2023-04-24T01:32:13.553Z,984.14
2023-04-24T01:33:13.655Z,984.25
2023-04-24T01:34:13.652Z,984.22
2023-04-24T01:35:13.640Z,984.22
2023-04-24T01:36:13.531Z,984.07
2023-04-24T01:37:13.322Z,984.22
2023-04-24T01:38:13.620Z,984.18
2023-04-24T01:39:13.642Z,984.16
2023-04-24T01:40:13.617Z,984.17
2023-04-24T01:41:13.678Z,984.20
2023-04-24T01:42:13.442Z,984.16
2023-04-24T01:43:13.596Z,984.16
2023-04-24T01:44:13.731Z,984.16
2023-04-24T01:45:13.906Z,984.10
2023-04-24T01:46:13.313Z,984.12
2023-04-24T01:47:13.545Z,984.14
2023-04-24T01:48:13.492Z,984.13
2023-04-24T01:49:13.421Z,984.18
2023-04-24T01:50:13.439Z,984.23
2023-04-24T01:51:13.515Z,984.16
2023-04-24T01:52:13.546Z,984.23
2023-04-24T01:53:13.720Z,984.17
2023-04-24T01:54:13.992Z,984.17
2023-04-24T01:55:13.001Z,984.16
2023-04-24T01:56:12.834Z,984.22
2023-04-24T01:57:13.611Z,984.16
2023-04-24T01:58:13.553Z,984.10
2023-04-24T01:59:13.552Z,984.14
2023-04-24T02:00:13.593Z,984.11
2023-04-24T02:01:13.694Z,984.10
2023-04-24T02:02:13.725Z,984.14
2023-04-24T02:03:13.916Z,984.17
2023-04-24T02:04:14.284Z,984.13
2023-04-24T02:05:13.418Z,984.16
2023-04-24T02:06:13.459Z,984.16
2023-04-24T02:07:13.397Z,984.17
2023-04-24T02:08:13.617Z,984.13
2023-04-24T02:09:13.914Z,984.11
2023-04-24T02:10:12.963Z,984.14
2023-04-24T02:11:13.020Z,984.10
2023-04-24T02:12:12.902Z,984.12
2023-04-24T02:13:12.946Z,984.15
2023-04-24T02:14:13.265Z,984.18
2023-04-24T02:15:13.362Z,984.17
2023-04-24T02:16:13.531Z,984.17
2023-04-24T02:17:13.782Z,984.13
2023-04-24T02:18:13.561Z,984.17
2023-04-24T02:19:13.583Z,984.22
2023-04-24T02:20:13.526Z,984.16
2023-04-24T02:21:13.964Z,984.25
2023-04-24T02:22:12.957Z,984.26
2023-04-24T02:23:12.945Z,984.23
2023-04-24T02:24:12.828Z,984.34
2023-04-24T02:25:14.192Z,984.25
2023-04-24T02:26:13.483Z,984.32
2023-04-24T02:27:13.445Z,984.19
2023-04-24T02:28:13.406Z,984.24
2023-04-24T02:29:13.252Z,984.20
2023-04-24T02:30:13.397Z,984.27
2023-04-24T02:31:13.555Z,984.30
2023-04-24T02:32:13.935Z,984.29
2023-04-24T02:33:13.182Z,984.26
2023-04-24T02:34:13.017Z,984.27
2023-04-24T02:35:13.130Z,984.32
2023-04-24T02:36:13.209Z,984.30
2023-04-24T02:37:13.311Z,984.30
2023-04-24T02:38:13.389Z,984.31
2023-04-24T02:39:13.473Z,984.33
2023-04-24T02:40:13.433Z,984.32
2023-04-24T02:41:13.560Z,984.31
2023-04-24T02:42:13.864Z,984.41
2023-04-24T02:43:14.300Z,984.37
2023-04-24T02:44:13.164Z,984.41
2023-04-24T02:45:13.434Z,984.46
2023-04-24T02:46:13.468Z,984.40
2023-04-24T02:47:13.558Z,984.41
2023-04-24T02:48:13.363Z,984.39
2023-04-24T02:49:13.292Z,984.46
2023-04-24T02:50:13.424Z,984.49
2023-04-24T02:51:13.609Z,984.46
2023-04-24T02:52:13.597Z,984.54
2023-04-24T02:53:13.458Z,984.50
2023-04-24T02:54:13.585Z,984.57
2023-04-24T02:55:13.759Z,984.50
2023-04-24T02:56:13.906Z,984.51
2023-04-24T02:57:13.088Z,984.47
2023-04-24T02:58:13.565Z,984.44
2023-04-24T02:59:13.709Z,984.48
2023-04-24T03:00:13.717Z,984.48
2023-04-24T03:01:14.289Z,984.50
2023-04-24T03:02:13.414Z,984.46
2023-04-24T03:03:13.870Z,984.47
2023-04-24T03:04:13.466Z,984.41
2023-04-24T03:05:13.610Z,984.49
2023-04-24T03:06:13.908Z,984.46
2023-04-24T03:07:12.909Z,984.53
2023-04-24T03:08:12.982Z,984.51
2023-04-24T03:09:13.227Z,984.50
2023-04-24T03:10:13.064Z,984.54
2023-04-24T03:11:13.267Z,984.47
2023-04-24T03:12:13.657Z,984.54
2023-04-24T03:13:13.748Z,984.59
2023-04-24T03:14:13.930Z,984.59
2023-04-24T03:15:12.940Z,984.63
2023-04-24T03:16:12.838Z,984.65
2023-04-24T03:17:13.778Z,984.67
2023-04-24T03:18:14.010Z,984.64
2023-04-24T03:19:13.149Z,984.69
2023-04-24T03:20:13.035Z,984.66
2023-04-24T03:21:12.871Z,984.62
2023-04-24T03:22:14.000Z,984.73
2023-04-24T03:23:13.151Z,984.72
2023-04-24T03:24:14.268Z,984.70
2023-04-24T03:25:13.208Z,984.73
2023-04-24T03:26:13.397Z,984.67
2023-04-24T03:27:13.676Z,984.70
2023-04-24T03:28:13.960Z,984.72
2023-04-24T03:29:13.009Z,984.67
2023-04-24T03:30:12.902Z,984.57
2023-04-24T03:31:12.893Z,984.62
2023-04-24T03:32:12.990Z,984.66
2023-04-24T03:33:13.015Z,984.67
2023-04-24T03:34:13.292Z,984.64
2023-04-24T03:35:13.458Z,984.67
2023-04-24T03:36:13.317Z,984.65
2023-04-24T03:37:13.306Z,984.77
2023-04-24T03:38:13.215Z,984.68
2023-04-24T03:39:13.278Z,984.73
2023-04-24T03:40:13.240Z,984.68
2023-04-24T03:41:13.649Z,984.73
2023-04-24T03:42:13.674Z,984.72
2023-04-24T03:43:14.031Z,984.71
2023-04-24T03:44:13.283Z,984.75
2023-04-24T03:45:13.196Z,984.66
2023-04-24T03:46:13.169Z,984.65
2023-04-24T03:47:13.134Z,984.68
2023-04-24T03:48:13.075Z,984.70
2023-04-24T03:49:13.165Z,984.66
2023-04-24T03:50:13.282Z,984.68
2023-04-24T03:51:13.367Z,984.69
2023-04-24T03:52:13.417Z,984.79
2023-04-24T03:53:13.604Z,984.71
2023-04-24T03:54:13.685Z,984.74
2023-04-24T03:55:13.744Z,984.71
2023-04-24T03:56:13.687Z,984.73
2023-04-24T03:57:13.700Z,984.69
2023-04-24T03:58:13.704Z,984.71
2023-04-24T03:59:13.812Z,984.69
2023-04-24T04:00:13.997Z,984.74
2023-04-24T04:01:12.862Z,984.70
2023-04-24T04:02:13.884Z,984.75
2023-04-24T04:03:13.059Z,984.80
2023-04-24T04:04:13.433Z,984.76
2023-04-24T04:05:13.681Z,984.75
2023-04-24T04:06:14.015Z,984.78
2023-04-24T04:07:12.994Z,984.68
2023-04-24T04:08:12.730Z,984.70
2023-04-24T04:09:13.964Z,984.78
2023-04-24T04:10:13.083Z,984.78
2023-04-24T04:11:13.086Z,984.81
2023-04-24T04:12:12.917Z,984.77
2023-04-24T04:13:12.822Z,984.79
2023-04-24T04:14:13.879Z,984.77
2023-04-24T04:15:14.002Z,984.73
2023-04-24T04:16:13.053Z,984.75
2023-04-24T04:17:13.387Z,984.83
2023-04-24T04:18:13.650Z,984.76
2023-04-24T04:19:13.600Z,984.76
2023-04-24T04:20:13.927Z,984.78
2023-04-24T04:21:13.112Z,984.83
2023-04-24T04:22:13.149Z,984.82
2023-04-24T04:23:12.996Z,984.80
2023-04-24T04:24:12.789Z,984.83
2023-04-24T04:25:13.973Z,984.83
2023-04-24T04:26:12.915Z,984.78
2023-04-24T04:27:13.281Z,984.78
2023-04-24T04:28:13.187Z,984.72
2023-04-24T04:29:12.988Z,984.79
2023-04-24T04:30:13.072Z,984.77
2023-04-24T04:31:13.075Z,984.79
2023-04-24T04:32:13.478Z,984.76
2023-04-24T04:33:13.760Z,984.81
2023-04-24T04:34:14.163Z,984.82
2023-04-24T04:35:13.227Z,984.82
2023-04-24T04:36:13.327Z,984.86
2023-04-24T04:37:13.320Z,984.89
2023-04-24T04:38:13.245Z,984.83
2023-04-24T04:39:13.293Z,984.88
2023-04-24T04:40:13.323Z,984.93
2023-04-24T04:41:13.499Z,984.84
2023-04-24T04:42:13.434Z,984.88
2023-04-24T04:43:13.616Z,984.89
2023-04-24T04:44:13.639Z,984.91
2023-04-24T04:45:13.713Z,984.96
2023-04-24T04:46:13.726Z,984.91
2023-04-24T04:47:13.842Z,984.91
2023-04-24T04:48:13.872Z,984.91
2023-04-24T04:49:12.972Z,984.91
2023-04-24T04:50:13.040Z,984.95
2023-04-24T04:51:13.293Z,984.99
2023-04-24T04:52:13.876Z,984.92
2023-04-24T04:53:13.841Z,984.94
2023-04-24T04:54:14.201Z,984.93
2023-04-24T04:55:13.299Z,984.95
2023-04-24T04:56:13.188Z,984.95
2023-04-24T04:57:13.283Z,985.03
2023-04-24T04:58:13.449Z,984.95
2023-04-24T04:59:13.275Z,984.97
2023-04-24T05:00:13.300Z,984.90
2023-04-24T05:01:13.641Z,984.90
2023-04-24T05:02:13.950Z,984.90
2023-04-24T05:04:13.170Z,984.96
2023-04-24T05:05:13.225Z,984.93
2023-04-24T05:06:13.368Z,984.98
2023-04-24T05:07:14.328Z,984.89
2023-04-24T05:09:13.787Z,984.83
2023-04-24T05:10:13.984Z,984.90
2023-04-24T05:11:12.985Z,984.89
2023-04-24T05:12:14.384Z,984.87
2023-04-24T05:13:14.209Z,984.87
2023-04-24T05:14:13.331Z,984.91
2023-04-24T05:15:13.230Z,984.88
2023-04-24T05:16:14.657Z,984.82
2023-04-24T05:17:14.301Z,984.87
2023-04-24T05:18:13.742Z,984.78
2023-04-24T05:19:13.687Z,984.80
2023-04-24T05:20:13.588Z,984.74
2023-04-24T05:22:14.705Z,984.77
2023-04-24T05:23:13.796Z,984.78
2023-04-24T05:24:14.272Z,984.77
2023-04-24T05:25:13.491Z,984.73
2023-04-24T05:26:14.345Z,984.80
2023-04-24T05:27:13.585Z,984.74
2023-04-24T05:28:13.856Z,984.81
2023-04-24T05:29:13.951Z,984.77
2023-04-24T05:30:13.120Z,984.79
2023-04-24T05:31:12.965Z,984.72
2023-04-24T05:32:13.156Z,984.77
2023-04-24T05:33:13.407Z,984.80
2023-04-24T05:34:13.820Z,984.82
2023-04-24T05:35:14.191Z,984.88
2023-04-24T05:36:13.126Z,984.84
2023-04-24T05:37:13.367Z,984.88
2023-04-24T05:38:13.431Z,984.87
2023-04-24T05:39:13.761Z,984.94
2023-04-24T05:40:13.790Z,984.93
2023-04-24T05:41:13.819Z,984.91
2023-04-24T05:42:14.077Z,984.96
2023-04-24T05:43:13.323Z,985.01
2023-04-24T05:44:13.968Z,984.95
2023-04-24T05:45:13.193Z,984.95
2023-04-24T05:46:13.169Z,985.00
2023-04-24T05:47:13.298Z,985.00
2023-04-24T05:48:13.483Z,985.02
2023-04-24T05:49:13.697Z,985.03
2023-04-24T05:50:13.769Z,985.08
2023-04-24T05:51:13.866Z,985.07
2023-04-24T05:52:14.043Z,985.03
2023-04-24T05:53:13.337Z,985.04
2023-04-24T05:54:13.415Z,985.13
2023-04-24T05:55:13.471Z,985.08
2023-04-24T05:56:13.467Z,985.12
2023-04-24T05:57:13.427Z,985.07
2023-04-24T05:58:13.474Z,985.09
2023-04-24T05:59:13.784Z,985.11
2023-04-24T06:00:13.943Z,985.07
2023-04-24T06:01:13.020Z,985.12
2023-04-24T06:02:13.021Z,985.07
2023-04-24T06:03:13.692Z,985.10
2023-04-24T06:04:13.466Z,985.23
2023-04-24T06:05:14.006Z,985.11
2023-04-24T06:06:13.011Z,985.16
2023-04-24T06:07:12.855Z,985.12
2023-04-24T06:08:13.823Z,985.13
2023-04-24T06:09:13.853Z,985.06
2023-04-24T06:10:14.005Z,985.09
2023-04-24T06:11:12.894Z,985.13
2023-04-24T06:12:13.195Z,985.07
2023-04-24T06:13:13.497Z,985.11
2023-04-24T06:14:13.898Z,985.14
2023-04-24T06:15:13.063Z,985.10
2023-04-24T06:16:18.278Z,985.11
2023-04-24T06:17:18.472Z,985.08
2023-04-24T06:18:13.650Z,985.14
2023-04-24T06:19:14.194Z,985.12
2023-04-24T06:20:13.305Z,985.10
2023-04-24T06:21:13.214Z,985.09
2023-04-24T06:22:13.287Z,985.18
2023-04-24T06:23:13.242Z,985.21
2023-04-24T06:24:13.339Z,985.22
2023-04-24T06:25:13.525Z,985.22
2023-04-24T06:26:13.478Z,985.20
2023-04-24T06:27:14.581Z,985.21
2023-04-24T06:28:13.899Z,985.19
2023-04-24T06:29:13.033Z,985.21
2023-04-24T06:30:13.041Z,985.24
2023-04-24T06:31:13.060Z,985.22
2023-04-24T06:32:13.451Z,985.22
2023-04-24T06:34:13.421Z,985.19
2023-04-24T06:35:13.834Z,985.19
2023-04-24T06:36:13.139Z,985.18
2023-04-24T06:37:13.512Z,985.22
2023-04-24T06:38:13.642Z,985.18
2023-04-24T06:39:13.878Z,985.24
2023-04-24T06:40:14.027Z,985.23
2023-04-24T06:41:13.135Z,985.25
2023-04-24T06:42:13.290Z,985.24
2023-04-24T06:43:13.399Z,985.22
2023-04-24T06:44:13.292Z,985.23
2023-04-24T06:45:13.864Z,985.23
2023-04-24T06:46:14.068Z,985.24
2023-04-24T06:47:13.203Z,985.27
2023-04-24T06:48:13.590Z,985.21
2023-04-24T06:49:13.363Z,985.26
2023-04-24T06:50:13.827Z,985.18
2023-04-24T06:51:14.168Z,985.28
2023-04-24T06:52:13.234Z,985.27
2023-04-24T06:53:13.380Z,985.25
2023-04-24T06:54:13.383Z,985.20
2023-04-24T06:55:13.497Z,985.20
2023-04-24T06:56:13.434Z,985.19
2023-04-24T06:57:13.675Z,985.15
2023-04-24T06:58:13.730Z,985.14
2023-04-24T06:59:13.635Z,985.19
2023-04-24T07:00:13.649Z,985.12
2023-04-24T07:01:13.837Z,985.11
2023-04-24T07:02:13.224Z,985.15
2023-04-24T07:03:13.695Z,985.16
2023-04-24T07:04:14.224Z,985.15
2023-04-24T07:05:13.326Z,985.22
2023-04-24T07:06:13.591Z,985.15
2023-04-24T07:07:13.878Z,985.17
2023-04-24T07:08:13.808Z,985.25
2023-04-24T07:09:19.257Z,985.17
2023-04-24T07:10:13.494Z,985.14
2023-04-24T07:11:13.866Z,985.18
2023-04-24T07:12:14.100Z,985.20
2023-04-24T07:13:13.113Z,985.21
2023-04-24T07:14:13.524Z,985.17
2023-04-24T07:15:13.579Z,985.21
2023-04-24T07:16:13.563Z,985.15
2023-04-24T07:17:13.660Z,985.21
2023-04-24T07:18:13.785Z,985.17
2023-04-24T07:19:12.981Z,985.22
2023-04-24T07:21:13.992Z,985.14
2023-04-24T07:22:13.207Z,985.22
2023-04-24T07:23:13.673Z,985.18
2023-04-24T07:24:13.855Z,985.15
2023-04-24T07:25:16.349Z,985.17
2023-04-24T07:26:13.383Z,985.14
2023-04-24T07:27:14.038Z,985.16
2023-04-24T07:28:13.087Z,985.18
2023-04-24T07:29:13.360Z,985.18
2023-04-24T07:30:13.258Z,985.20
2023-04-24T07:31:13.478Z,985.13
2023-04-24T07:32:13.726Z,985.14
2023-04-24T07:33:13.739Z,985.27
2023-04-24T07:34:13.702Z,985.12
2023-04-24T07:35:13.904Z,985.11
2023-04-24T07:36:13.082Z,985.21
2023-04-24T07:37:13.326Z,985.24
2023-04-24T07:38:13.422Z,985.23
2023-04-24T07:39:13.370Z,985.19
2023-04-24T07:40:13.438Z,985.25
2023-04-24T07:41:13.338Z,985.28
2023-04-24T07:42:13.356Z,985.24
2023-04-24T07:43:13.714Z,985.23
2023-04-24T07:44:13.754Z,985.26
2023-04-24T07:45:13.722Z,985.24
2023-04-24T07:46:13.670Z,985.27
2023-04-24T07:47:13.912Z,985.19
2023-04-24T07:48:13.017Z,985.28
2023-04-24T07:49:14.471Z,985.18
2023-04-24T07:50:13.506Z,985.27
2023-04-24T07:51:13.475Z,985.29
2023-04-24T07:52:13.388Z,985.26
2023-04-24T07:53:13.345Z,985.32
2023-04-24T07:54:13.869Z,985.43
2023-04-24T07:55:13.822Z,985.35
2023-04-24T07:56:13.685Z,985.40
2023-04-24T07:57:14.367Z,985.39
2023-04-24T07:58:13.543Z,985.39
2023-04-24T07:59:13.942Z,985.35
2023-04-24T08:00:13.068Z,985.31
2023-04-24T08:01:13.930Z,985.34
2023-04-24T08:02:13.296Z,985.37
2023-04-24T08:03:13.431Z,985.34
2023-04-24T08:04:23.701Z,985.37
2023-04-24T08:05:14.135Z,985.41
2023-04-24T08:06:14.044Z,985.32
2023-04-24T08:07:12.929Z,985.38
2023-04-24T08:08:18.232Z,985.44
2023-04-24T08:09:13.333Z,985.33
2023-04-24T08:10:13.402Z,985.42
2023-04-24T08:11:18.531Z,985.48
2023-04-24T08:12:13.843Z,985.43
2023-04-24T08:13:13.922Z,985.40
2023-04-24T08:14:12.870Z,985.52
2023-04-24T08:15:13.033Z,985.50
2023-04-24T08:16:13.218Z,985.52
2023-04-24T08:17:13.693Z,985.48
2023-04-24T08:18:13.624Z,985.50
2023-04-24T08:19:13.553Z,985.55
2023-04-24T08:20:13.602Z,985.51
2023-04-24T08:21:13.852Z,985.53
2023-04-24T08:22:14.127Z,985.59
2023-04-24T08:23:13.874Z,985.59
2023-04-24T08:24:14.186Z,985.61
2023-04-24T08:25:13.094Z,985.60
2023-04-24T08:26:13.432Z,985.59
2023-04-24T08:27:13.382Z,985.66
2023-04-24T08:28:14.574Z,985.69
2023-04-24T08:29:13.109Z,985.63
2023-04-24T08:30:13.133Z,985.76
2023-04-24T08:31:13.299Z,985.82
2023-04-24T08:32:13.729Z,985.68
2023-04-24T08:33:14.792Z,985.75
2023-04-24T08:34:13.678Z,985.71
2023-04-24T08:35:13.735Z,985.63
2023-04-24T08:36:14.125Z,985.72
2023-04-24T08:37:13.379Z,985.71
2023-04-24T08:38:13.364Z,985.74
2023-04-24T08:39:13.426Z,985.76
2023-04-24T08:40:13.794Z,985.76
2023-04-24T08:41:14.056Z,985.81
2023-04-24T08:42:13.449Z,985.80
2023-04-24T08:43:13.395Z,985.81
2023-04-24T08:44:13.249Z,985.82
2023-04-24T08:45:13.271Z,985.80
2023-04-24T08:46:13.276Z,985.81
2023-04-24T08:47:14.642Z,985.88
2023-04-24T08:48:23.412Z,985.79
2023-04-24T08:49:13.875Z,985.88
2023-04-24T08:50:13.784Z,985.78
2023-04-24T08:52:13.325Z,985.80
2023-04-24T08:53:13.286Z,985.88
2023-04-24T08:54:13.346Z,985.95
2023-04-24T08:55:14.341Z,985.90
2023-04-24T08:56:13.413Z,985.92
2023-04-24T08:57:13.300Z,985.89
2023-04-24T08:58:13.373Z,985.95
2023-04-24T08:59:13.484Z,986.02
2023-04-24T09:00:13.342Z,985.96
2023-04-24T09:01:13.557Z,986.00
2023-04-24T09:02:13.544Z,985.97
2023-04-24T09:03:13.823Z,986.02
2023-04-24T09:04:14.276Z,985.98
2023-04-24T09:05:13.833Z,986.16
2023-04-24T09:06:13.877Z,986.04
2023-04-24T09:07:12.999Z,986.08
2023-04-24T09:08:13.185Z,986.08
2023-04-24T09:09:13.396Z,986.13
2023-04-24T09:10:13.574Z,986.10
2023-04-24T09:11:13.544Z,986.05
2023-04-24T09:12:13.511Z,986.06
2023-04-24T09:13:13.400Z,986.05
2023-04-24T09:14:13.274Z,986.01
2023-04-24T09:15:13.666Z,986.13
2023-04-24T09:16:13.834Z,986.12
2023-04-24T09:17:13.845Z,986.13
2023-04-24T09:18:13.183Z,986.16
2023-04-24T09:19:13.671Z,986.10
2023-04-24T09:20:13.861Z,986.26
2023-04-24T09:21:13.918Z,986.14
2023-04-24T09:22:12.861Z,986.26
2023-04-24T09:23:14.047Z,986.25
2023-04-24T09:24:12.910Z,986.25
2023-04-24T09:25:13.194Z,986.27
2023-04-24T09:26:13.079Z,986.27
2023-04-24T09:27:13.186Z,986.32
2023-04-24T09:29:29.335Z,986.39
2023-04-24T09:30:18.246Z,986.34
2023-04-24T09:31:13.871Z,986.40
2023-04-24T09:32:38.451Z,986.29
2023-04-24T09:33:18.924Z,986.40
2023-04-24T09:35:19.016Z,986.47
2023-04-24T09:37:29.193Z,986.54
2023-04-24T09:38:35.472Z,986.61
2023-04-24T09:39:13.364Z,986.66
2023-04-24T09:40:23.466Z,986.65
2023-04-24T09:41:19.652Z,986.77
2023-04-24T09:42:13.948Z,986.77
2023-04-24T09:43:13.419Z,986.78
2023-04-24T09:44:13.423Z,986.78
2023-04-24T09:45:15.533Z,986.78
2023-04-24T09:46:13.416Z,986.82
2023-04-24T09:47:14.686Z,986.77
2023-04-24T09:48:14.000Z,986.96
2023-04-24T09:49:13.094Z,986.91
2023-04-24T09:50:13.204Z,986.89
2023-04-24T09:51:13.570Z,986.97
2023-04-24T09:52:13.656Z,987.00
2023-04-24T09:53:13.791Z,987.02
2023-04-24T09:54:23.426Z,987.02
2023-04-24T09:56:23.549Z,987.07
2023-04-24T09:57:19.369Z,987.06
2023-04-24T09:58:13.296Z,987.12
2023-04-24T09:59:18.334Z,987.11
2023-04-24T10:00:19.712Z,987.13
2023-04-24T10:01:14.761Z,987.20
2023-04-24T10:02:13.877Z,987.28
2023-04-24T10:03:13.119Z,987.19
2023-04-24T10:04:18.737Z,987.22
2023-04-24T10:05:29.055Z,987.20
2023-04-24T10:06:13.068Z,987.22
2023-04-24T10:07:13.338Z,987.35
2023-04-24T10:08:38.178Z,987.24
2023-04-24T10:09:13.458Z,987.35
2023-04-24T10:10:13.887Z,987.35
2023-04-24T10:11:13.261Z,987.39
2023-04-24T10:12:30.602Z,987.38
2023-04-24T10:13:14.424Z,987.35
2023-04-24T10:14:13.853Z,987.51
2023-04-24T10:15:14.035Z,987.51
2023-04-24T10:16:13.970Z,987.67
2023-04-24T10:17:18.297Z,987.59
2023-04-24T10:18:13.624Z,987.64
2023-04-24T10:19:14.827Z,987.67
2023-04-24T10:20:14.323Z,987.76
2023-04-24T10:21:14.017Z,987.78
2023-04-24T10:22:13.131Z,987.86
2023-04-24T10:23:13.503Z,987.86
2023-04-24T10:24:13.559Z,987.85
2023-04-24T10:25:13.856Z,987.87
2023-04-24T10:26:36.914Z,987.94
2023-04-24T10:27:13.516Z,988.02
2023-04-24T10:28:13.514Z,988.03
2023-04-24T10:29:14.246Z,988.12
2023-04-24T10:30:13.677Z,988.31
2023-04-24T10:31:13.857Z,988.22
2023-04-24T10:32:13.260Z,988.30
2023-04-24T10:33:13.294Z,988.29
2023-04-24T10:34:13.578Z,988.34
2023-04-24T10:35:13.535Z,988.26
2023-04-24T10:36:14.506Z,988.38
2023-04-24T10:37:13.383Z,988.34
2023-04-24T10:38:13.340Z,988.51
2023-04-24T10:39:13.398Z,988.45
2023-04-24T10:40:13.862Z,988.41
2023-04-24T10:41:13.820Z,988.43
2023-04-24T10:42:14.270Z,988.42
2023-04-24T10:43:13.186Z,988.48
2023-04-24T10:44:13.038Z,988.46
2023-04-24T10:45:12.968Z,988.49
2023-04-24T10:46:12.962Z,988.59
2023-04-24T10:47:13.227Z,988.51
2023-04-24T10:48:13.343Z,988.56
2023-04-24T10:49:13.417Z,988.64
2023-04-24T10:50:13.274Z,988.67
2023-04-24T10:51:13.361Z,988.67
2023-04-24T10:52:13.730Z,988.57
2023-04-24T10:53:13.738Z,988.66
2023-04-24T10:54:13.751Z,988.73
2023-04-24T10:55:13.691Z,988.77
2023-04-24T10:56:13.586Z,988.69
2023-04-24T10:57:13.556Z,988.77
2023-04-24T10:58:13.432Z,988.82
2023-04-24T10:59:13.553Z,988.78
2023-04-24T11:00:13.958Z,988.78
2023-04-24T11:01:13.004Z,988.82
2023-04-24T11:02:12.997Z,988.80
2023-04-24T11:03:13.063Z,988.91
2023-04-24T11:04:13.071Z,988.88
2023-04-24T11:05:13.064Z,988.87
2023-04-24T11:06:12.937Z,988.94
2023-04-24T11:07:13.185Z,988.94
2023-04-24T11:08:13.298Z,988.96
2023-04-24T11:09:13.429Z,988.97
2023-04-24T11:10:13.584Z,988.91
2023-04-24T11:11:13.783Z,988.94
2023-04-24T11:12:13.876Z,989.00
2023-04-24T11:13:13.315Z,989.05
2023-04-24T11:14:13.592Z,989.02
2023-04-24T11:15:13.526Z,989.00
2023-04-24T11:16:13.584Z,989.05
2023-04-24T11:17:13.592Z,989.04
2023-04-24T11:18:13.520Z,988.94
2023-04-24T11:19:13.656Z,989.04
2023-04-24T11:20:26.101Z,989.12
2023-04-24T11:21:13.859Z,989.12
2023-04-24T11:22:13.273Z,989.14
2023-04-24T11:23:13.206Z,989.17
2023-04-24T11:24:13.086Z,989.07
2023-04-24T11:25:13.056Z,989.12
2023-04-24T11:26:12.929Z,989.25
2023-04-24T11:27:14.030Z,989.20
2023-04-24T11:28:13.140Z,989.21
2023-04-24T11:29:13.367Z,989.25
2023-04-24T11:30:13.654Z,989.31
2023-04-24T11:31:13.974Z,989.29
2023-04-24T11:32:12.951Z,989.23
2023-04-24T11:33:13.214Z,989.35
2023-04-24T11:34:13.464Z,989.34
2023-04-24T11:35:13.580Z,989.31
2023-04-24T11:36:13.688Z,989.43
2023-04-24T11:37:13.666Z,989.40
2023-04-24T11:38:24.030Z,989.40
2023-04-24T11:39:13.025Z,989.40
2023-04-24T11:40:18.085Z,989.48
2023-04-24T11:41:13.203Z,989.49
2023-04-24T11:42:13.299Z,989.45
2023-04-24T11:43:13.317Z,989.47
2023-04-24T11:44:13.218Z,989.47
2023-04-24T11:45:13.439Z,989.46
2023-04-24T11:46:13.606Z,989.46
2023-04-24T11:47:12.768Z,989.54
2023-04-24T11:48:13.764Z,989.58
2023-04-24T11:49:13.861Z,989.41
2023-04-24T11:50:13.772Z,989.42
2023-04-24T11:51:13.668Z,989.50
2023-04-24T11:52:13.502Z,989.51
2023-04-24T11:53:13.538Z,989.56
2023-04-24T11:54:13.440Z,989.57
2023-04-24T11:55:13.472Z,989.59
2023-04-24T11:56:13.382Z,989.55
2023-04-24T11:57:13.342Z,989.54
2023-04-24T11:58:13.208Z,989.60
2023-04-24T11:59:13.140Z,989.56
2023-04-24T12:00:13.636Z,989.60
2023-04-24T12:01:13.163Z,989.61
2023-04-24T12:02:13.217Z,989.60
2023-04-24T12:03:14.052Z,989.57
2023-04-24T12:04:13.370Z,989.58
2023-04-24T12:05:13.633Z,989.66
2023-04-24T12:06:13.334Z,989.63
2023-04-24T12:07:13.376Z,989.63
2023-04-24T12:08:13.441Z,989.71
2023-04-24T12:09:18.194Z,989.46
2023-04-24T12:10:13.646Z,989.65
2023-04-24T12:11:13.548Z,989.66
2023-04-24T12:12:13.704Z,989.65
2023-04-24T12:13:13.669Z,989.78
2023-04-24T12:14:13.594Z,989.69
2023-04-24T12:15:13.536Z,989.68
2023-04-24T12:16:13.704Z,989.77
2023-04-24T12:17:14.046Z,989.79
2023-04-24T12:18:13.536Z,989.78
2023-04-24T12:19:13.542Z,989.82
2023-04-24T12:20:14.306Z,989.78
2023-04-24T12:21:13.412Z,989.89
2023-04-24T12:22:13.516Z,989.81
2023-04-24T12:23:13.587Z,989.81
2023-04-24T12:24:13.891Z,989.84
2023-04-24T12:25:13.132Z,989.81
2023-04-24T12:26:13.108Z,989.90
2023-04-24T12:27:13.148Z,989.94
2023-04-24T12:28:13.210Z,989.91
2023-04-24T12:29:13.076Z,989.98
2023-04-24T12:30:12.921Z,989.90
2023-04-24T12:31:12.845Z,989.98
2023-04-24T12:32:12.991Z,989.95
2023-04-24T12:33:13.073Z,989.98
2023-04-24T12:34:13.085Z,989.96
2023-04-24T12:35:12.929Z,990.03
2023-04-24T12:36:12.835Z,990.07
2023-04-24T12:37:13.767Z,990.12
2023-04-24T12:38:15.051Z,990.10